| time (UTC) | temp F | wind direction | speed MPH | gust MPH | rain 1hr in | rain 24hr in | rain mn in | humidity % | barometer mb |
| 20260507210654 | 59 | 329 | 5.0 | 11.0 | 0.00 | 0.00 | 0.00 | 48 | 1402.9 |
| 20260507210149 | 59 | 207 | 5.0 | 11.0 | 0.00 | 0.00 | 0.00 | 46 | 1402.8 |
| 20260507205642 | 59 | 209 | 7.0 | 16.0 | 0.00 | 0.00 | 0.00 | 48 | 1402.6 |
| 20260507205137 | 59 | 238 | 8.0 | 16.0 | 0.00 | 0.00 | 0.00 | 45 | 1402.8 |
| 20260507204631 | 60 | 269 | 7.0 | 15.0 | 0.00 | 0.00 | 0.00 | 44 | 1402.6 |
| 20260507203113 | 60 | 271 | 6.0 | 12.0 | 0.00 | 0.00 | 0.00 | 44 | 1402.8 |
| 20260507202607 | 60 | 285 | 7.0 | 14.0 | 0.00 | 0.00 | 0.00 | 45 | 1402.8 |
| 20260507202101 | 61 | 223 | 7.0 | 14.0 | 0.00 | 0.00 | 0.00 | 46 | 1402.5 |
| 20260507200543 | 60 | 243 | 7.0 | 12.0 | 0.00 | 0.00 | 0.00 | 49 | 1402.9 |
| 20260507200038 | 60 | 261 | 7.0 | 14.0 | 0.00 | 0.00 | 0.00 | 45 | 1403.0 |
| 20260507195537 | 60 | 242 | 7.0 | 14.0 | 0.00 | 0.00 | 0.00 | 45 | 1403.2 |
| 20260507195038 | 60 | 223 | 6.0 | 13.0 | 0.00 | 0.00 | 0.00 | 48 | 1403.3 |
| 20260507194537 | 59 | 290 | 7.0 | 12.0 | 0.00 | 0.00 | 0.00 | 49 | 1403.4 |
| 20260507194038 | 59 | 259 | 6.0 | 12.0 | 0.00 | 0.00 | 0.00 | 46 | 1403.4 |
| 20260507193537 | 60 | 284 | 7.0 | 14.0 | 0.00 | 0.00 | 0.00 | 46 | 1403.4 |
| 20260507193037 | 61 | 258 | 7.0 | 14.0 | 0.00 | 0.00 | 0.00 | 45 | 1403.3 |
| 20260507192538 | 60 | 250 | 5.0 | 11.0 | 0.00 | 0.00 | 0.00 | 52 | 1403.4 |
| 20260507192039 | 60 | 230 | 5.0 | 12.0 | 0.00 | 0.00 | 0.00 | 48 | 1403.4 |
| 20260507191538 | 61 | 263 | 6.0 | 14.0 | 0.00 | 0.00 | 0.00 | 47 | 1403.4 |
| 20260507191037 | 61 | 241 | 7.0 | 15.0 | 0.00 | 0.00 | 0.00 | 51 | 1403.4 |
| 20260507190538 | 60 | 259 | 7.0 | 16.0 | 0.00 | 0.00 | 0.00 | 53 | 1403.4 |
| 20260507190038 | 60 | 244 | 6.0 | 16.0 | 0.00 | 0.00 | 0.00 | 48 | 1403.4 |
| 20260507185538 | 59 | 272 | 7.0 | 15.0 | 0.00 | 0.00 | 0.00 | 47 | 1403.6 |
| 20260507185037 | 59 | 192 | 8.0 | 15.0 | 0.00 | 0.00 | 0.00 | 46 | 1403.6 |
| 20260507184537 | 60 | 286 | 7.0 | 14.0 | 0.00 | 0.00 | 0.00 | 45 | 1403.7 |
| 20260507184036 | 61 | 233 | 7.0 | 14.0 | 0.00 | 0.00 | 0.00 | 45 | 1403.8 |
| 20260507183534 | 61 | 274 | 5.0 | 14.0 | 0.00 | 0.00 | 0.00 | 50 | 1403.8 |
| 20260507183034 | 60 | 299 | 5.0 | 14.0 | 0.00 | 0.00 | 0.00 | 51 | 1403.8 |
| 20260507182535 | 60 | 193 | 5.0 | 15.0 | 0.00 | 0.00 | 0.00 | 51 | 1403.8 |
| 20260507182035 | 59 | 267 | 6.0 | 15.0 | 0.00 | 0.00 | 0.00 | 50 | 1404.0 |
| 20260507181533 | 60 | 303 | 5.0 | 11.0 | 0.00 | 0.00 | 0.00 | 47 | 1403.8 |
| 20260507180534 | 60 | 202 | 6.0 | 14.0 | 0.00 | 0.00 | 0.00 | 49 | 1403.8 |
| 20260507180035 | 60 | 240 | 4.0 | 11.0 | 0.00 | 0.00 | 0.00 | 55 | 1403.8 |
| 20260507174529 | 59 | 278 | 4.0 | 9.0 | 0.00 | 0.00 | 0.00 | 53 | 1404.2 |
| 20260507174030 | 59 | 311 | 4.0 | 9.0 | 0.00 | 0.00 | 0.00 | 51 | 1404.4 |
| 20260507173029 | 58 | 186 | 3.0 | 9.0 | 0.00 | 0.00 | 0.00 | 56 | 1404.7 |
| 20260507172529 | 57 | 302 | 4.0 | 9.0 | 0.00 | 0.00 | 0.00 | 53 | 1404.8 |
| 20260507172030 | 58 | 345 | 4.0 | 10.0 | 0.00 | 0.00 | 0.00 | 52 | 1404.9 |
| 20260507171031 | 58 | 277 | 3.0 | 11.0 | 0.00 | 0.00 | 0.00 | 51 | 1404.9 |
| 20260507170530 | 58 | 336 | 2.0 | 8.0 | 0.00 | 0.00 | 0.00 | 54 | 1405.1 |
| 20260507165529 | 58 | 209 | 4.0 | 10.0 | 0.00 | 0.01 | 0.00 | 50 | 1405.1 |
| 20260507165029 | 59 | 321 | 3.0 | 10.0 | 0.00 | 0.01 | 0.00 | 51 | 1405.3 |
| 20260507164530 | 58 | 207 | 2.0 | 8.0 | 0.00 | 0.01 | 0.00 | 55 | 1405.3 |
| 20260507163030 | 57 | 232 | 5.0 | 11.0 | 0.00 | 0.01 | 0.00 | 53 | 1405.6 |
| 20260507162530 | 57 | 293 | 3.0 | 10.0 | 0.00 | 0.01 | 0.00 | 52 | 1405.6 |
| 20260507162024 | 58 | 89 | 4.0 | 9.0 | 0.00 | 0.01 | 0.00 | 54 | 1405.7 |
| 20260507161522 | 57 | 185 | 6.0 | 11.0 | 0.00 | 0.01 | 0.00 | 57 | 1405.6 |
| 20260507161023 | 57 | 209 | 5.0 | 11.0 | 0.00 | 0.01 | 0.00 | 56 | 1405.7 |
| 20260507160522 | 56 | 137 | 4.0 | 10.0 | 0.00 | 0.01 | 0.00 | 52 | 1405.7 |
| 20260507160021 | 56 | 183 | 4.0 | 10.0 | 0.00 | 0.01 | 0.00 | 52 | 1405.9 |
| 20260507155519 | 56 | 302 | 3.0 | 10.0 | 0.00 | 0.01 | 0.00 | 54 | 1405.7 |
| 20260507155019 | 56 | 221 | 3.0 | 9.0 | 0.00 | 0.01 | 0.00 | 54 | 1406.0 |
| 20260507154520 | 55 | 199 | 3.0 | 9.0 | 0.00 | 0.01 | 0.00 | 56 | 1406.1 |
| 20260507154020 | 56 | 340 | 3.0 | 9.0 | 0.00 | 0.01 | 0.00 | 53 | 1406.1 |
| 20260507153519 | 56 | 223 | 4.0 | 10.0 | 0.00 | 0.01 | 0.00 | 51 | 1406.1 |
| 20260507153019 | 56 | 238 | 4.0 | 10.0 | 0.00 | 0.01 | 0.00 | 53 | 1406.3 |
| 20260507152019 | 55 | 266 | 4.0 | 10.0 | 0.00 | 0.01 | 0.00 | 51 | 1406.3 |
| 20260507151015 | 56 | 195 | 4.0 | 8.0 | 0.00 | 0.01 | 0.00 | 58 | 1406.4 |
| 20260507150515 | 55 | 169 | 3.0 | 8.0 | 0.00 | 0.01 | 0.00 | 54 | 1406.5 |
| 20260507150016 | 55 | 268 | 3.0 | 8.0 | 0.00 | 0.01 | 0.00 | 54 | 1406.5 |
| 20260507145510 | 55 | 284 | 2.0 | 8.0 | 0.00 | 0.01 | 0.00 | 57 | 1406.7 |
| 20260507145003 | 55 | 274 | 1.0 | 5.0 | 0.00 | 0.01 | 0.00 | 55 | 1406.7 |
| 20260507144458 | 54 | 243 | 2.0 | 8.0 | 0.00 | 0.01 | 0.00 | 57 | 1406.8 |
| 20260507143952 | 54 | 200 | 3.0 | 8.0 | 0.00 | 0.03 | 0.00 | 59 | 1406.8 |
| 20260507143446 | 54 | 225 | 3.0 | 8.0 | 0.00 | 0.04 | 0.00 | 61 | 1407.1 |
| 20260507142435 | 54 | 208 | 3.0 | 11.0 | 0.00 | 0.04 | 0.00 | 59 | 1407.2 |
| 20260507141935 | 54 | 195 | 1.0 | 6.0 | 0.00 | 0.04 | 0.00 | 60 | 1407.4 |
| 20260507141436 | 54 | 328 | 2.0 | 7.0 | 0.00 | 0.04 | 0.00 | 58 | 1407.5 |
| 20260507140935 | 53 | 338 | 4.0 | 8.0 | 0.00 | 0.04 | 0.00 | 60 | 1407.6 |
| 20260507140433 | 53 | 238 | 3.0 | 8.0 | 0.00 | 0.04 | 0.00 | 59 | 1407.6 |
| 20260507135933 | 53 | 302 | 3.0 | 7.0 | 0.00 | 0.04 | 0.00 | 61 | 1407.6 |
| 20260507135433 | 53 | 243 | 3.0 | 7.0 | 0.00 | 0.04 | 0.00 | 61 | 1407.8 |
| 20260507134932 | 53 | 282 | 2.0 | 9.0 | 0.00 | 0.04 | 0.00 | 62 | 1407.9 |
| 20260507134433 | 53 | 340 | 2.0 | 9.0 | 0.00 | 0.04 | 0.00 | 64 | 1408.0 |
| 20260507133933 | 53 | 210 | 2.0 | 7.0 | 0.00 | 0.04 | 0.00 | 64 | 1408.0 |
| 20260507133433 | 52 | 175 | 2.0 | 7.0 | 0.00 | 0.04 | 0.00 | 66 | 1408.0 |
| 20260507132931 | 52 | 223 | 2.0 | 5.0 | 0.00 | 0.04 | 0.00 | 67 | 1408.2 |
| 20260507132429 | 52 | 113 | 1.0 | 5.0 | 0.00 | 0.04 | 0.00 | 68 | 1408.0 |
| 20260507131930 | 52 | 213 | 1.0 | 4.0 | 0.00 | 0.04 | 0.00 | 76 | 1408.0 |
| 20260507130427 | 50 | 225 | 1.0 | 4.0 | 0.00 | 0.04 | 0.00 | 79 | 1408.0 |
| 20260507125421 | 50 | 196 | 1.0 | 3.0 | 0.00 | 0.04 | 0.00 | 84 | 1408.0 |
| 20260507123904 | 48 | 142 | 0.0 | 2.0 | 0.00 | 0.04 | 0.00 | 89 | 1408.3 |
| 20260507123358 | 47 | 138 | 0.0 | 3.0 | 0.00 | 0.04 | 0.00 | 90 | 1408.3 |
| 20260507122852 | 47 | 153 | 1.0 | 3.0 | 0.00 | 0.04 | 0.00 | 90 | 1408.3 |
| 20260507122346 | 47 | 207 | 1.0 | 3.0 | 0.00 | 0.04 | 0.00 | 91 | 1408.2 |
| 20260507121334 | 46 | 70 | 0.0 | 1.0 | 0.00 | 0.05 | 0.00 | 94 | 1408.3 |
| 20260507120827 | 45 | 70 | 0.0 | 2.0 | 0.00 | 0.05 | 0.00 | 95 | 1408.3 |
| 20260507120322 | 45 | 70 | 0.0 | 2.0 | 0.00 | 0.05 | 0.00 | 95 | 1408.2 |
| 20260507115816 | 44 | 42 | 0.0 | 1.0 | 0.00 | 0.05 | 0.00 | 95 | 1408.3 |
| 20260507115310 | 43 | 346 | 0.0 | 1.0 | 0.00 | 0.05 | 0.00 | 95 | 1408.3 |
| 20260507114804 | 43 | 346 | 0.0 | 1.0 | 0.00 | 0.05 | 0.00 | 95 | 1408.3 |
| 20260507114258 | 42 | 346 | 0.0 | 1.0 | 0.00 | 0.05 | 0.00 | 95 | 1408.2 |
| 20260507113246 | 41 | 346 | 0.0 | 0.0 | 0.00 | 0.05 | 0.00 | 95 | 1408.0 |
| 20260507112740 | 40 | 346 | 0.0 | 0.0 | 0.00 | 0.05 | 0.00 | 95 | 1407.9 |
| 20260507112234 | 39 | 346 | 0.0 | 0.0 | 0.00 | 0.05 | 0.00 | 94 | 1407.9 |
| 20260507111728 | 39 | 346 | 0.0 | 0.0 | 0.00 | 0.05 | 0.00 | 94 | 1407.8 |
| 20260507111222 | 39 | 346 | 0.0 | 0.0 | 0.00 | 0.05 | 0.00 | 94 | 1407.5 |
| 20260507110716 | 38 | 346 | 0.0 | 0.0 | 0.00 | 0.05 | 0.00 | 94 | 1407.5 |
| 20260507105704 | 38 | 346 | 0.0 | 0.0 | 0.00 | 0.06 | 0.00 | 93 | 1407.4 |
| 20260507105158 | 38 | 346 | 0.0 | 0.0 | 0.00 | 0.07 | 0.00 | 93 | 1407.2 |
| 20260507104652 | 38 | 346 | 0.0 | 0.0 | 0.00 | 0.08 | 0.00 | 93 | 1407.1 |
| 20260507104149 | 38 | 346 | 0.0 | 1.0 | 0.00 | 0.09 | 0.00 | 93 | 1407.2 |
| 20260507103648 | 38 | 346 | 0.0 | 1.0 | 0.00 | 0.09 | 0.00 | 93 | 1407.2 |
| 20260507103148 | 38 | 346 | 0.0 | 1.0 | 0.00 | 0.11 | 0.00 | 92 | 1407.4 |
| 20260507102647 | 38 | 346 | 0.0 | 1.0 | 0.00 | 0.13 | 0.00 | 92 | 1407.2 |
| 20260507102147 | 39 | 341 | 0.0 | 3.0 | 0.00 | 0.14 | 0.00 | 92 | 1407.2 |
| 20260507101648 | 39 | 341 | 0.0 | 3.0 | 0.00 | 0.15 | 0.00 | 92 | 1407.1 |
| 20260507100647 | 39 | 344 | 0.0 | 1.0 | 0.00 | 0.17 | 0.00 | 92 | 1406.9 |
| 20260507100148 | 39 | 344 | 0.0 | 1.0 | 0.00 | 0.17 | 0.00 | 92 | 1406.9 |
| 20260507095647 | 40 | 318 | 0.0 | 1.0 | 0.00 | 0.18 | 0.00 | 92 | 1406.8 |
| 20260507095148 | 40 | 318 | 0.0 | 2.0 | 0.00 | 0.18 | 0.00 | 92 | 1406.8 |
| 20260507094644 | 40 | 318 | 0.0 | 2.0 | 0.00 | 0.18 | 0.00 | 91 | 1406.9 |
| 20260507094142 | 40 | 17 | 0.0 | 2.0 | 0.00 | 0.19 | 0.00 | 91 | 1406.8 |
| 20260507093642 | 40 | 17 | 0.0 | 2.0 | 0.00 | 0.20 | 0.00 | 91 | 1406.8 |
| 20260507093144 | 40 | 17 | 0.0 | 0.0 | 0.00 | 0.21 | 0.00 | 91 | 1406.8 |
| 20260507092642 | 40 | 17 | 0.0 | 0.0 | 0.00 | 0.21 | 0.00 | 90 | 1406.8 |
| 20260507092143 | 41 | 17 | 0.0 | 0.0 | 0.00 | 0.22 | 0.00 | 90 | 1406.9 |
| 20260507091640 | 41 | 17 | 0.0 | 0.0 | 0.00 | 0.23 | 0.00 | 90 | 1407.1 |
| 20260507091138 | 41 | 17 | 0.0 | 0.0 | 0.00 | 0.23 | 0.00 | 89 | 1407.1 |
| 20260507090638 | 42 | 17 | 0.0 | 0.0 | 0.00 | 0.25 | 0.00 | 89 | 1407.1 |
| 20260507090140 | 42 | 17 | 0.0 | 0.0 | 0.00 | 0.25 | 0.00 | 89 | 1407.1 |
| 20260507085139 | 43 | 17 | 0.0 | 0.0 | 0.00 | 0.25 | 0.00 | 89 | 1407.1 |
| 20260507084639 | 43 | 17 | 0.0 | 2.0 | 0.00 | 0.25 | 0.00 | 89 | 1407.1 |
| 20260507084138 | 44 | 17 | 0.0 | 2.0 | 0.00 | 0.26 | 0.00 | 89 | 1407.1 |
| 20260507083640 | 44 | 17 | 0.0 | 2.0 | 0.00 | 0.26 | 0.00 | 89 | 1407.1 |
| 20260507083139 | 44 | 17 | 0.0 | 2.0 | 0.00 | 0.26 | 0.00 | 89 | 1407.1 |
| 20260507082639 | 44 | 17 | 0.0 | 0.0 | 0.00 | 0.27 | 0.00 | 88 | 1407.1 |
| 20260507081639 | 45 | 17 | 0.0 | 0.0 | 0.00 | 0.27 | 0.00 | 88 | 1407.1 |
| 20260507081139 | 45 | 17 | 0.0 | 0.0 | 0.00 | 0.27 | 0.00 | 87 | 1406.9 |
| 20260507080638 | 45 | 17 | 0.0 | 0.0 | 0.00 | 0.28 | 0.00 | 87 | 1406.8 |
| 20260507080138 | 46 | 17 | 0.0 | 0.0 | 0.00 | 0.28 | 0.00 | 87 | 1406.8 |
| 20260507075640 | 46 | 17 | 0.0 | 0.0 | 0.00 | 0.28 | 0.00 | 87 | 1406.8 |
| 20260507075138 | 46 | 17 | 0.0 | 0.0 | 0.00 | 0.28 | 0.00 | 87 | 1406.8 |
| 20260507074633 | 46 | 17 | 0.0 | 0.0 | 0.00 | 0.29 | 0.00 | 88 | 1406.7 |
| 20260507074127 | 46 | 17 | 0.0 | 0.0 | 0.00 | 0.29 | 0.00 | 87 | 1406.8 |
| 20260507073620 | 47 | 17 | 0.0 | 0.0 | 0.00 | 0.29 | 0.00 | 87 | 1406.9 |
| 20260507073115 | 47 | 17 | 0.0 | 0.0 | 0.00 | 0.29 | 0.00 | 87 | 1406.9 |
| 20260507072609 | 47 | 17 | 0.0 | 2.0 | 0.00 | 0.29 | 0.00 | 86 | 1406.8 |
| 20260507072103 | 47 | 17 | 0.0 | 2.0 | 0.00 | 0.29 | 0.00 | 87 | 1406.8 |
| 20260507071052 | 48 | 17 | 0.0 | 0.0 | 0.00 | 0.29 | 0.00 | 85 | 1406.8 |
| 20260507070545 | 48 | 17 | 0.0 | 0.0 | 0.00 | 0.29 | 0.00 | 85 | 1406.8 |
| 20260507070039 | 48 | 17 | 0.0 | 0.0 | 0.00 | 0.29 | 0.00 | 83 | 1406.7 |
| 20260507065533 | 48 | 17 | 0.0 | 0.0 | 0.00 | 0.29 | 0.00 | 79 | 1406.7 |
| 20260507065027 | 48 | 17 | 0.0 | 0.0 | 0.00 | 0.29 | 0.00 | 78 | 1406.7 |
| 20260507064015 | 48 | 17 | 0.0 | 1.0 | 0.00 | 0.29 | 0.00 | 78 | 1406.7 |
| 20260507063003 | 48 | 27 | 0.0 | 2.0 | 0.00 | 0.29 | 0.00 | 78 | 1406.8 |
| 20260507061951 | 48 | 34 | 0.0 | 3.0 | 0.00 | 0.29 | 0.00 | 76 | 1407.1 |
| 20260507061445 | 48 | 32 | 1.0 | 2.0 | 0.00 | 0.29 | 0.00 | 76 | 1407.1 |
| 20260507060433 | 48 | 18 | 0.0 | 2.0 | 0.00 | 0.29 | 0.00 | 80 | 1407.2 |
| 20260507055421 | 48 | 27 | 0.0 | 3.0 | 0.00 | 0.30 | 0.00 | 79 | 1407.4 |
| 20260507054915 | 48 | 20 | 0.0 | 0.0 | 0.00 | 0.30 | 0.00 | 80 | 1407.4 |
| 20260507054409 | 49 | 20 | 0.0 | 0.0 | 0.00 | 0.30 | 0.00 | 82 | 1407.4 |
| 20260507053357 | 49 | 20 | 0.0 | 0.0 | 0.00 | 0.30 | 0.00 | 83 | 1407.8 |
| 20260507052851 | 49 | 20 | 0.0 | 0.0 | 0.00 | 0.30 | 0.00 | 79 | 1407.6 |
| 20260507051839 | 49 | 20 | 0.0 | 0.0 | 0.00 | 0.30 | 0.00 | 80 | 1407.6 |
| 20260507051333 | 49 | 20 | 0.0 | 0.0 | 0.00 | 0.30 | 0.00 | 79 | 1407.8 |
| 20260507050826 | 49 | 20 | 0.0 | 0.0 | 0.00 | 0.30 | 0.00 | 79 | 1407.6 |
| 20260507050322 | 49 | 20 | 0.0 | 0.0 | 0.00 | 0.30 | 0.00 | 78 | 1407.6 |
| 20260507045814 | 49 | 20 | 0.0 | 0.0 | 0.00 | 0.30 | 0.00 | 78 | 1407.6 |
| 20260507045309 | 49 | 20 | 0.0 | 2.0 | 0.00 | 0.30 | 0.00 | 79 | 1407.8 |
| 20260507044804 | 49 | 20 | 0.0 | 2.0 | 0.00 | 0.30 | 0.00 | 79 | 1407.6 |
| 20260507043751 | 49 | 355 | 0.0 | 3.0 | 0.00 | 0.30 | 0.00 | 82 | 1407.5 |
| 20260507043245 | 49 | 346 | 0.0 | 2.0 | 0.00 | 0.30 | 0.00 | 82 | 1407.4 |
| 20260507042738 | 49 | 0 | 0.0 | 2.0 | 0.00 | 0.30 | 0.00 | 82 | 1407.4 |
| 20260507042233 | 49 | 13 | 0.0 | 3.0 | 0.00 | 0.30 | 0.00 | 82 | 1407.5 |
| 20260507041728 | 49 | 355 | 0.0 | 3.0 | 0.00 | 0.30 | 0.00 | 84 | 1407.2 |
| 20260507041222 | 49 | 5 | 0.0 | 1.0 | 0.00 | 0.30 | 0.00 | 86 | 1407.5 |
| 20260507040715 | 50 | 5 | 0.0 | 0.0 | 0.00 | 0.30 | 0.00 | 87 | 1407.5 |
| 20260507040209 | 50 | 5 | 0.0 | 0.0 | 0.00 | 0.30 | 0.00 | 86 | 1407.5 |
| 20260507035157 | 50 | 5 | 0.0 | 0.0 | 0.00 | 0.30 | 0.30 | 84 | 1407.4 |
| 20260507034651 | 50 | 5 | 0.0 | 0.0 | 0.00 | 0.30 | 0.30 | 84 | 1407.2 |
| 20260507034145 | 50 | 5 | 0.0 | 0.0 | 0.00 | 0.30 | 0.30 | 84 | 1407.5 |
| 20260507033638 | 50 | 5 | 0.0 | 0.0 | 0.00 | 0.30 | 0.30 | 83 | 1407.5 |
| 20260507033136 | 50 | 5 | 0.0 | 0.0 | 0.00 | 0.30 | 0.30 | 83 | 1407.2 |
| 20260507032135 | 50 | 5 | 0.0 | 0.0 | 0.00 | 0.30 | 0.30 | 83 | 1407.6 |
| 20260507031632 | 50 | 5 | 0.0 | 0.0 | 0.00 | 0.30 | 0.30 | 82 | 1407.5 |
| 20260507031132 | 51 | 5 | 0.0 | 1.0 | 0.00 | 0.30 | 0.30 | 83 | 1407.1 |
| 20260507030628 | 51 | 5 | 0.0 | 2.0 | 0.00 | 0.30 | 0.30 | 83 | 1406.9 |
| 20260507030128 | 51 | 5 | 0.0 | 2.0 | 0.00 | 0.30 | 0.30 | 84 | 1406.9 |
| 20260507025628 | 51 | 26 | 0.0 | 2.0 | 0.00 | 0.30 | 0.30 | 84 | 1407.2 |
| 20260507025126 | 51 | 26 | 0.0 | 2.0 | 0.00 | 0.30 | 0.30 | 80 | 1406.8 |
| 20260507024626 | 51 | 13 | 0.0 | 2.0 | 0.00 | 0.30 | 0.30 | 82 | 1406.5 |
| 20260507024127 | 51 | 13 | 0.0 | 2.0 | 0.00 | 0.30 | 0.30 | 82 | 1406.8 |
| 20260507023628 | 51 | 22 | 0.0 | 2.0 | 0.00 | 0.30 | 0.30 | 82 | 1406.8 |
| 20260507023127 | 51 | 15 | 0.0 | 2.0 | 0.00 | 0.30 | 0.30 | 84 | 1406.8 |
| 20260507022624 | 51 | 10 | 1.0 | 3.0 | 0.00 | 0.30 | 0.30 | 85 | 1406.8 |
| 20260507022125 | 51 | 347 | 1.0 | 3.0 | 0.00 | 0.30 | 0.30 | 87 | 1406.8 |
| 20260507021623 | 51 | 326 | 1.0 | 3.0 | 0.00 | 0.30 | 0.30 | 89 | 1406.8 |
| 20260507021124 | 51 | 24 | 1.0 | 3.0 | 0.00 | 0.30 | 0.30 | 91 | 1406.5 |
| 20260507020625 | 51 | 323 | 1.0 | 4.0 | 0.00 | 0.30 | 0.30 | 92 | 1406.8 |
| 20260507020124 | 52 | 346 | 1.0 | 4.0 | 0.00 | 0.30 | 0.30 | 93 | 1406.5 |
| 20260507015619 | 52 | 349 | 0.0 | 2.0 | 0.00 | 0.30 | 0.30 | 93 | 1406.1 |
| 20260507015113 | 52 | 349 | 0.0 | 1.0 | 0.00 | 0.30 | 0.30 | 93 | 1405.9 |
| 20260507014607 | 52 | 349 | 0.0 | 0.0 | 0.00 | 0.30 | 0.30 | 93 | 1405.7 |
| 20260507014100 | 52 | 349 | 0.0 | 0.0 | 0.00 | 0.30 | 0.30 | 93 | 1405.7 |
| 20260507013058 | 52 | 349 | 0.0 | 0.0 | 0.00 | 0.30 | 0.30 | 93 | 1405.7 |
| 20260507012557 | 52 | 349 | 0.0 | 0.0 | 0.00 | 0.30 | 0.30 | 93 | 1405.7 |
| 20260507011553 | 52 | 349 | 0.0 | 1.0 | 0.00 | 0.30 | 0.30 | 92 | 1405.5 |
| 20260507011054 | 52 | 349 | 0.0 | 1.0 | 0.00 | 0.30 | 0.30 | 92 | 1405.6 |
| 20260507010553 | 52 | 349 | 0.0 | 1.0 | 0.00 | 0.30 | 0.30 | 92 | 1405.6 |
| 20260507010050 | 52 | 349 | 0.0 | 2.0 | 0.00 | 0.30 | 0.30 | 92 | 1405.6 |
| 20260507005551 | 52 | 349 | 0.0 | 2.0 | 0.00 | 0.30 | 0.30 | 91 | 1405.7 |
| 20260507005051 | 53 | 349 | 0.0 | 2.0 | 0.00 | 0.30 | 0.30 | 91 | 1405.9 |
| 20260507004549 | 53 | 349 | 0.0 | 1.0 | 0.00 | 0.30 | 0.30 | 91 | 1405.9 |
| 20260507004051 | 53 | 349 | 0.0 | 1.0 | 0.00 | 0.30 | 0.30 | 91 | 1405.9 |
| 20260507003549 | 53 | 349 | 0.0 | 1.0 | 0.00 | 0.30 | 0.30 | 91 | 1405.7 |
| 20260507003051 | 53 | 348 | 0.0 | 1.0 | 0.00 | 0.30 | 0.30 | 90 | 1405.9 |
| 20260507002551 | 53 | 340 | 0.0 | 1.0 | 0.00 | 0.30 | 0.30 | 90 | 1406.0 |
| 20260507002050 | 53 | 283 | 0.0 | 0.0 | 0.00 | 0.30 | 0.30 | 90 | 1406.3 |
| 20260507000545 | 53 | 244 | 0.0 | 0.0 | 0.00 | 0.30 | 0.30 | 90 | 1406.8 |
| 20260507000046 | 53 | 244 | 0.0 | 1.0 | 0.00 | 0.30 | 0.30 | 90 | 1406.3 |
| 20260506235045 | 53 | 292 | 0.0 | 0.0 | 0.00 | 0.30 | 0.30 | 88 | 1405.7 |
| 20260506234545 | 53 | 255 | 0.0 | 0.0 | 0.00 | 0.30 | 0.30 | 89 | 1405.6 |
| 20260506234045 | 53 | 240 | 0.0 | 0.0 | 0.00 | 0.30 | 0.30 | 89 | 1405.7 |
| 20260506233543 | 53 | 240 | 0.0 | 1.0 | 0.00 | 0.30 | 0.30 | 89 | 1406.1 |
| 20260506233044 | 53 | 240 | 0.0 | 1.0 | 0.00 | 0.30 | 0.30 | 89 | 1406.0 |
| 20260506232544 | 53 | 281 | 0.0 | 1.0 | 0.00 | 0.30 | 0.30 | 88 | 1405.7 |
| 20260506232045 | 53 | 281 | 0.0 | 1.0 | 0.00 | 0.30 | 0.30 | 88 | 1405.6 |
| 20260506231541 | 54 | 281 | 0.0 | 0.0 | 0.00 | 0.30 | 0.30 | 88 | 1405.6 |
| 20260506230539 | 54 | 281 | 0.0 | 0.0 | 0.00 | 0.30 | 0.30 | 88 | 1405.5 |
| 20260506230041 | 54 | 281 | 0.0 | 0.0 | 0.00 | 0.30 | 0.30 | 88 | 1405.3 |
| 20260506225540 | 54 | 281 | 0.0 | 0.0 | 0.00 | 0.30 | 0.30 | 86 | 1405.3 |
| 20260506225040 | 54 | 281 | 0.0 | 0.0 | 0.00 | 0.30 | 0.30 | 86 | 1405.2 |
| 20260506224541 | 54 | 281 | 0.0 | 0.0 | 0.00 | 0.30 | 0.30 | 86 | 1405.2 |
| 20260506223541 | 54 | 281 | 0.0 | 1.0 | 0.00 | 0.30 | 0.30 | 85 | 1404.9 |
| 20260506223037 | 54 | 281 | 0.0 | 1.0 | 0.00 | 0.30 | 0.30 | 85 | 1405.1 |
| 20260506222535 | 54 | 323 | 0.0 | 1.0 | 0.00 | 0.30 | 0.30 | 85 | 1405.1 |
| 20260506222033 | 54 | 323 | 0.0 | 2.0 | 0.00 | 0.30 | 0.30 | 85 | 1404.9 |
| 20260506221529 | 54 | 323 | 1.0 | 3.0 | 0.00 | 0.30 | 0.30 | 84 | 1405.1 |
| 20260506221029 | 54 | 336 | 1.0 | 4.0 | 0.00 | 0.30 | 0.30 | 84 | 1405.1 |
| 20260506220525 | 54 | 310 | 2.0 | 6.0 | 0.00 | 0.30 | 0.30 | 84 | 1405.1 |
| 20260506215524 | 54 | 296 | 1.0 | 3.0 | 0.00 | 0.30 | 0.30 | 83 | 1404.9 |
| 20260506215024 | 54 | 288 | 2.0 | 6.0 | 0.00 | 0.30 | 0.30 | 83 | 1404.9 |
| 20260506214524 | 54 | 311 | 2.0 | 6.0 | 0.00 | 0.30 | 0.30 | 83 | 1404.7 |
| 20260506214024 | 54 | 271 | 2.0 | 4.0 | 0.00 | 0.30 | 0.30 | 83 | 1404.7 |
| 20260506213523 | 54 | 260 | 2.0 | 6.0 | 0.00 | 0.30 | 0.30 | 83 | 1404.5 |
| 20260506213025 | 54 | 310 | 2.0 | 6.0 | 0.00 | 0.30 | 0.30 | 82 | 1404.5 |
| 20260506212523 | 54 | 244 | 2.0 | 4.0 | 0.00 | 0.30 | 0.30 | 83 | 1404.2 |
| 20260506212024 | 54 | 290 | 2.0 | 6.0 | 0.00 | 0.30 | 0.30 | 83 | 1404.1 |